createdAt,value
2022-11-09T00:02:05.475Z,15.60
2022-11-09T00:04:33.686Z,15.60
2022-11-09T00:07:04.537Z,15.60
2022-11-09T00:09:33.038Z,15.60
2022-11-09T00:12:04.757Z,15.60
2022-11-09T00:14:32.999Z,15.60
2022-11-09T00:17:02.772Z,15.60
2022-11-09T00:19:30.977Z,15.60
2022-11-09T00:22:01.564Z,15.60
2022-11-09T00:24:29.701Z,15.60
2022-11-09T00:26:57.961Z,15.60
2022-11-09T00:29:29.954Z,15.50
2022-11-09T00:32:01.229Z,15.60
2022-11-09T00:34:30.788Z,15.50
2022-11-09T00:37:02.210Z,15.60
2022-11-09T00:39:30.810Z,15.60
2022-11-09T00:42:02.952Z,15.50
2022-11-09T00:44:31.525Z,15.50
2022-11-09T00:46:59.755Z,15.50
2022-11-09T00:49:29.739Z,15.50
2022-11-09T00:52:01.238Z,15.50
2022-11-09T00:54:29.417Z,15.50
2022-11-09T00:56:57.660Z,15.50
2022-11-09T00:59:25.907Z,15.50
2022-11-09T01:01:54.092Z,15.50
2022-11-09T01:04:22.362Z,15.60
2022-11-09T01:06:50.545Z,15.50
2022-11-09T01:09:20.126Z,15.50
2022-11-09T01:11:48.360Z,15.50
2022-11-09T01:14:16.524Z,15.50
2022-11-09T01:16:44.709Z,15.60
2022-11-09T01:19:13.244Z,15.50
2022-11-09T01:21:41.488Z,15.60
2022-11-09T01:24:11.036Z,15.50
2022-11-09T01:26:43.438Z,15.50
2022-11-09T01:29:11.674Z,15.50
2022-11-09T01:31:43.752Z,15.60
2022-11-09T01:34:11.964Z,15.50
2022-11-09T01:36:40.405Z,15.50
2022-11-09T01:39:08.555Z,15.50
2022-11-09T01:41:40.992Z,15.50
2022-11-09T01:44:13.640Z,15.50
2022-11-09T01:46:46.547Z,15.50
2022-11-09T01:49:20.811Z,15.50
2022-11-09T01:51:54.576Z,15.50
2022-11-09T01:54:26.377Z,15.40
2022-11-09T01:57:04.477Z,15.40
2022-11-09T01:59:37.575Z,15.40
2022-11-09T02:02:06.811Z,15.40
2022-11-09T02:04:40.953Z,15.40
2022-11-09T02:07:12.411Z,15.40
2022-11-09T02:09:44.838Z,15.40
2022-11-09T02:12:14.622Z,15.40
2022-11-09T02:14:43.238Z,15.40
2022-11-09T02:17:12.038Z,15.40
2022-11-09T02:19:40.463Z,15.40
2022-11-09T02:22:09.968Z,15.40
2022-11-09T02:24:38.254Z,15.50
2022-11-09T02:27:07.942Z,15.50
2022-11-09T02:29:39.241Z,15.40
2022-11-09T02:32:14.156Z,15.40
2022-11-09T02:34:42.491Z,15.40
2022-11-09T02:37:14.136Z,15.60
2022-11-09T02:39:42.428Z,15.40
2022-11-09T02:42:19.917Z,15.40
2022-11-09T02:44:54.780Z,15.40
2022-11-09T02:47:23.508Z,15.40
2022-11-09T02:49:51.847Z,15.40
2022-11-09T02:52:22.726Z,15.40
2022-11-09T02:54:53.828Z,15.40
2022-11-09T02:57:22.209Z,15.50
2022-11-09T02:59:52.027Z,15.40
2022-11-09T03:02:21.922Z,15.40
2022-11-09T03:04:50.551Z,15.40
2022-11-09T03:07:23.704Z,15.40
2022-11-09T03:09:53.969Z,15.40
2022-11-09T03:12:30.471Z,15.40
2022-11-09T03:15:08.001Z,15.40
2022-11-09T03:17:38.242Z,15.40
2022-11-09T03:20:08.077Z,15.40
2022-11-09T03:22:38.038Z,15.40
2022-11-09T03:25:08.193Z,15.40
2022-11-09T03:27:36.654Z,15.40
2022-11-09T03:30:06.878Z,15.40
2022-11-09T03:32:35.446Z,15.40
2022-11-09T03:35:04.502Z,15.40
2022-11-09T03:37:33.101Z,15.20
2022-11-09T03:40:08.909Z,15.40
2022-11-09T03:42:37.552Z,15.40
2022-11-09T03:45:08.000Z,15.40
2022-11-09T03:47:36.348Z,15.50
2022-11-09T03:50:08.377Z,15.40
2022-11-09T03:52:37.697Z,15.40
2022-11-09T03:55:08.380Z,15.40
2022-11-09T03:57:41.049Z,15.40
2022-11-09T04:00:10.827Z,15.40
2022-11-09T04:02:42.342Z,15.50
2022-11-09T04:05:12.422Z,15.50
2022-11-09T04:07:41.281Z,15.50
2022-11-09T04:10:13.843Z,15.50
2022-11-09T04:12:42.301Z,15.50
2022-11-09T04:15:11.841Z,15.50
2022-11-09T04:17:40.618Z,15.50
2022-11-09T04:20:12.694Z,15.50
2022-11-09T04:22:41.378Z,15.50
2022-11-09T04:25:11.228Z,15.50
2022-11-09T04:27:39.580Z,15.50
2022-11-09T04:30:09.276Z,15.50
2022-11-09T04:32:40.861Z,15.50
2022-11-09T04:35:10.241Z,15.50
2022-11-09T04:37:38.725Z,15.50
2022-11-09T04:40:09.570Z,15.50
2022-11-09T04:42:39.449Z,15.50
2022-11-09T04:45:09.063Z,15.50
2022-11-09T04:47:43.506Z,15.50
2022-11-09T04:50:14.313Z,15.50
2022-11-09T04:52:51.896Z,15.50
2022-11-09T04:55:23.203Z,15.50
2022-11-09T04:57:55.758Z,15.30
2022-11-09T05:00:30.058Z,15.50
2022-11-09T05:03:07.302Z,15.50
2022-11-09T05:05:44.052Z,15.40
2022-11-09T05:08:20.859Z,15.50
2022-11-09T05:10:52.449Z,15.50
2022-11-09T05:13:24.032Z,15.50
2022-11-09T05:15:57.743Z,15.20
2022-11-09T05:18:28.763Z,15.50
2022-11-09T05:21:02.820Z,15.50
2022-11-09T05:23:48.886Z,15.50
2022-11-09T05:26:22.675Z,15.50
2022-11-09T05:28:57.560Z,15.50
2022-11-09T05:31:26.404Z,15.50
2022-11-09T05:33:55.741Z,15.50
2022-11-09T05:36:29.860Z,15.50
2022-11-09T05:39:00.554Z,15.40
2022-11-09T05:41:30.862Z,15.50
2022-11-09T05:44:06.070Z,15.50
2022-11-09T05:46:36.400Z,15.40
2022-11-09T05:49:08.493Z,15.40
2022-11-09T05:51:39.966Z,15.40
2022-11-09T05:54:17.383Z,15.40
2022-11-09T05:56:56.651Z,15.40
2022-11-09T05:59:31.291Z,15.40
2022-11-09T06:02:05.484Z,15.40
2022-11-09T06:04:41.398Z,15.40
2022-11-09T06:07:10.781Z,15.40
2022-11-09T06:09:57.027Z,15.40
2022-11-09T06:12:25.249Z,15.40
2022-11-09T06:14:54.802Z,15.40
2022-11-09T06:17:23.072Z,15.40
2022-11-09T06:19:51.226Z,15.40
2022-11-09T06:22:19.517Z,15.40
2022-11-09T06:24:48.916Z,15.40
2022-11-09T06:27:17.076Z,15.40
2022-11-09T06:29:45.205Z,15.40
2022-11-09T06:32:14.670Z,15.40
2022-11-09T06:34:44.303Z,15.40
2022-11-09T06:37:12.452Z,15.40
2022-11-09T06:39:40.606Z,15.40
2022-11-09T06:42:09.046Z,15.40
2022-11-09T06:44:37.188Z,15.40
2022-11-09T06:47:06.018Z,15.40
2022-11-09T06:49:35.643Z,15.40
2022-11-09T06:52:04.073Z,15.40
2022-11-09T06:54:33.757Z,15.30
2022-11-09T06:57:04.370Z,15.40
2022-11-09T06:59:32.585Z,15.30
2022-11-09T07:02:02.088Z,15.30
2022-11-09T07:04:31.054Z,15.40
2022-11-09T07:07:04.666Z,15.30
2022-11-09T07:09:32.926Z,15.30
2022-11-09T07:12:01.095Z,15.30
2022-11-09T07:14:29.319Z,15.30
2022-11-09T07:16:57.534Z,15.30
2022-11-09T07:19:25.749Z,15.30
2022-11-09T07:21:54.064Z,15.30
2022-11-09T07:24:24.096Z,15.30
2022-11-09T07:26:52.349Z,15.30
2022-11-09T07:29:20.604Z,15.30
2022-11-09T07:31:48.771Z,15.30
2022-11-09T07:34:19.435Z,15.20
2022-11-09T07:36:47.701Z,15.20
2022-11-09T07:39:15.883Z,15.20
2022-11-09T07:41:47.905Z,15.20
2022-11-09T07:44:18.327Z,15.30
2022-11-09T07:46:48.518Z,15.20
2022-11-09T07:49:17.534Z,15.20
2022-11-09T07:51:45.914Z,15.20
2022-11-09T07:54:14.428Z,15.20
2022-11-09T07:56:42.988Z,15.20
2022-11-09T07:59:12.653Z,15.20
2022-11-09T08:01:41.101Z,15.20
2022-11-09T08:04:10.769Z,15.20
2022-11-09T08:06:39.717Z,15.20
2022-11-09T08:09:08.369Z,15.20
2022-11-09T08:11:36.577Z,15.20
2022-11-09T08:14:04.985Z,15.20
2022-11-09T08:16:37.753Z,15.20
2022-11-09T08:19:08.918Z,15.20
2022-11-09T08:21:43.345Z,15.20
2022-11-09T08:24:11.810Z,15.20
2022-11-09T08:26:40.152Z,15.20
2022-11-09T08:29:08.294Z,15.20
2022-11-09T08:31:38.004Z,15.10
2022-11-09T08:34:12.537Z,15.20
2022-11-09T08:36:40.812Z,15.20
2022-11-09T08:39:10.087Z,15.20
2022-11-09T08:41:38.750Z,15.10
2022-11-09T08:44:07.384Z,15.20
2022-11-09T08:46:41.236Z,15.20
2022-11-09T08:49:10.182Z,15.20
2022-11-09T08:51:38.431Z,15.10
2022-11-09T08:54:06.852Z,15.10
2022-11-09T08:56:35.245Z,15.20
2022-11-09T08:59:03.588Z,15.10
2022-11-09T09:01:31.789Z,15.10
2022-11-09T09:04:01.868Z,15.10
2022-11-09T09:06:31.520Z,15.10
2022-11-09T09:08:59.778Z,15.10
2022-11-09T09:11:29.868Z,15.10
2022-11-09T09:13:58.044Z,15.20
2022-11-09T09:16:26.216Z,15.10
2022-11-09T09:18:54.591Z,15.20
2022-11-09T09:21:24.176Z,15.20
2022-11-09T09:23:52.884Z,15.20
2022-11-09T09:26:21.200Z,15.20
2022-11-09T09:28:49.415Z,15.20
2022-11-09T09:31:19.224Z,15.20
2022-11-09T09:33:47.651Z,15.20
2022-11-09T09:36:20.030Z,15.20
2022-11-09T09:38:51.308Z,15.20
2022-11-09T09:41:24.588Z,15.20
2022-11-09T09:43:57.773Z,15.20
2022-11-09T09:46:32.072Z,15.20
2022-11-09T09:49:06.062Z,15.30
2022-11-09T09:51:40.680Z,15.30
2022-11-09T09:54:16.157Z,15.20
2022-11-09T09:56:46.688Z,15.20
2022-11-09T09:59:20.435Z,15.30
2022-11-09T10:01:50.843Z,15.30
2022-11-09T10:04:21.354Z,15.30
2022-11-09T10:07:00.170Z,15.30
2022-11-09T10:09:41.753Z,15.30
2022-11-09T10:12:18.973Z,15.30
2022-11-09T10:15:04.448Z,15.30
2022-11-09T10:17:41.128Z,15.30
2022-11-09T10:20:24.445Z,15.30
2022-11-09T10:23:05.565Z,15.40
2022-11-09T10:26:08.837Z,15.40
2022-11-09T10:28:42.623Z,15.40
2022-11-09T10:31:20.415Z,15.40
2022-11-09T10:33:53.367Z,15.40
2022-11-09T10:36:25.872Z,15.40
2022-11-09T10:38:57.699Z,15.40
2022-11-09T10:41:47.197Z,15.40
2022-11-09T10:44:33.916Z,15.40
2022-11-09T10:47:22.531Z,15.40
2022-11-09T10:50:18.824Z,15.40
2022-11-09T10:53:16.572Z,15.50
2022-11-09T10:56:20.215Z,15.40
2022-11-09T10:59:37.538Z,15.40
2022-11-09T11:02:52.098Z,15.50
2022-11-09T11:05:39.788Z,15.50
2022-11-09T11:08:39.469Z,15.40
2022-11-09T11:11:33.669Z,15.50
2022-11-09T11:14:29.323Z,15.50
2022-11-09T11:17:24.179Z,15.40
2022-11-09T11:20:29.861Z,15.50
2022-11-09T11:23:19.476Z,15.50
2022-11-09T11:26:30.987Z,15.50
2022-11-09T11:29:40.054Z,15.50
2022-11-09T11:32:29.552Z,15.50
2022-11-09T11:35:19.670Z,15.50
2022-11-09T11:38:20.435Z,15.50
2022-11-09T11:41:30.156Z,15.60
2022-11-09T11:44:32.788Z,15.60
2022-11-09T11:47:27.572Z,15.60
2022-11-09T11:50:33.217Z,15.60
2022-11-09T11:53:40.737Z,15.60
2022-11-09T11:56:35.083Z,15.60
2022-11-09T11:59:44.542Z,15.60
2022-11-09T12:03:14.217Z,15.70
2022-11-09T12:06:24.065Z,15.70
2022-11-09T12:09:42.044Z,15.70
2022-11-09T12:12:39.399Z,15.70
2022-11-09T12:15:41.008Z,15.70
2022-11-09T12:18:40.399Z,15.70
2022-11-09T12:21:33.493Z,15.70
2022-11-09T12:24:28.817Z,15.70
2022-11-09T12:27:41.369Z,15.70
2022-11-09T12:30:41.515Z,15.70
2022-11-09T12:33:43.302Z,15.70
2022-11-09T12:36:39.106Z,15.70
2022-11-09T12:39:33.920Z,15.70
2022-11-09T12:42:28.056Z,15.70
2022-11-09T12:45:22.926Z,15.70
2022-11-09T12:48:18.158Z,15.70
2022-11-09T12:51:08.543Z,15.70
2022-11-09T12:53:56.960Z,15.70
2022-11-09T12:56:59.129Z,15.80
2022-11-09T12:59:50.226Z,15.80
2022-11-09T13:02:39.854Z,15.80
2022-11-09T13:05:35.356Z,15.80
2022-11-09T13:08:29.147Z,15.80
2022-11-09T13:11:26.865Z,15.80
2022-11-09T13:14:47.005Z,15.80
2022-11-09T13:18:05.918Z,15.80
2022-11-09T13:20:56.021Z,15.80
2022-11-09T13:24:00.786Z,15.80
2022-11-09T13:27:00.480Z,15.90
2022-11-09T13:33:27.065Z,15.90
2022-11-09T13:36:18.009Z,15.90
2022-11-09T13:39:32.164Z,15.90
2022-11-09T13:42:28.806Z,15.90
2022-11-09T13:45:30.863Z,15.90
2022-11-09T13:48:36.216Z,15.90
2022-11-09T13:51:26.857Z,16.00
2022-11-09T13:54:29.648Z,16.00
2022-11-09T13:57:18.005Z,16.00
2022-11-09T14:00:07.369Z,16.00
2022-11-09T14:02:59.252Z,16.00
2022-11-09T14:05:49.457Z,16.00
2022-11-09T14:08:40.691Z,16.00
2022-11-09T14:11:44.248Z,16.00
2022-11-09T14:14:56.402Z,15.90
2022-11-09T14:17:53.016Z,15.90
2022-11-09T14:20:43.152Z,15.90
2022-11-09T14:23:32.234Z,15.90
2022-11-09T14:26:24.420Z,15.90
2022-11-09T14:29:22.585Z,15.90
2022-11-09T14:32:24.958Z,15.80
2022-11-09T14:35:21.128Z,15.80
2022-11-09T14:38:20.283Z,15.80
2022-11-09T14:41:18.530Z,15.80
2022-11-09T14:44:06.432Z,15.80
2022-11-09T14:46:55.108Z,15.80
2022-11-09T14:49:43.601Z,15.80
2022-11-09T14:52:32.067Z,15.80
2022-11-09T14:55:20.533Z,15.70
2022-11-09T14:58:07.363Z,15.70
2022-11-09T15:01:12.081Z,15.70
2022-11-09T15:04:11.221Z,15.70
2022-11-09T15:07:03.037Z,15.70
2022-11-09T15:09:54.615Z,15.70
2022-11-09T15:12:48.518Z,15.70
2022-11-09T15:15:36.544Z,15.70
2022-11-09T15:18:33.382Z,15.70
2022-11-09T15:21:35.402Z,15.60
2022-11-09T15:24:26.131Z,15.60
2022-11-09T15:27:31.534Z,15.60
2022-11-09T15:30:32.589Z,15.70
2022-11-09T15:33:24.369Z,15.60
2022-11-09T15:36:26.998Z,15.60
2022-11-09T15:39:17.546Z,15.70
2022-11-09T15:42:06.181Z,15.60
2022-11-09T15:44:54.369Z,15.60
2022-11-09T15:47:41.580Z,15.60
2022-11-09T15:50:29.210Z,15.60
2022-11-09T15:53:16.303Z,15.60
2022-11-09T15:56:02.883Z,15.60
2022-11-09T15:58:53.382Z,15.60
2022-11-09T16:01:40.144Z,15.60
2022-11-09T16:04:26.995Z,15.60
2022-11-09T16:07:16.676Z,15.50
2022-11-09T16:10:03.789Z,15.60
2022-11-09T16:12:52.998Z,15.60
2022-11-09T16:15:41.287Z,15.60
2022-11-09T16:18:28.353Z,15.50
2022-11-09T16:21:17.710Z,15.50
2022-11-09T16:24:04.590Z,15.50
2022-11-09T16:26:51.414Z,15.50
2022-11-09T16:29:38.288Z,15.50
2022-11-09T16:32:26.345Z,15.50
2022-11-09T16:35:26.716Z,15.50
2022-11-09T16:38:14.158Z,15.50
2022-11-09T16:41:04.038Z,15.40
2022-11-09T16:43:53.871Z,15.40
2022-11-09T16:46:43.461Z,15.40
2022-11-09T16:49:32.670Z,15.40
2022-11-09T16:52:19.279Z,15.40
2022-11-09T16:55:07.760Z,15.40
2022-11-09T16:57:55.281Z,15.40
2022-11-09T17:01:12.033Z,15.40
2022-11-09T17:03:52.541Z,15.30
2022-11-09T17:06:40.927Z,15.30
2022-11-09T17:09:27.827Z,15.30
2022-11-09T17:12:15.350Z,15.30
2022-11-09T17:15:02.071Z,15.30
2022-11-09T17:17:48.956Z,15.30
2022-11-09T17:20:35.876Z,15.20
2022-11-09T17:23:24.228Z,15.20
2022-11-09T17:26:13.372Z,15.20
2022-11-09T17:28:59.963Z,15.20
2022-11-09T17:31:46.860Z,15.20
2022-11-09T17:34:33.382Z,15.20
2022-11-09T17:37:23.003Z,15.20
2022-11-09T17:40:12.100Z,15.10
2022-11-09T17:43:00.669Z,15.10
2022-11-09T17:45:47.692Z,15.10
2022-11-09T17:48:35.560Z,15.10
2022-11-09T17:51:22.538Z,15.10
2022-11-09T17:54:09.453Z,15.10
2022-11-09T17:56:57.572Z,15.10
2022-11-09T17:59:44.144Z,15.10
2022-11-09T18:02:30.918Z,15.00
2022-11-09T18:05:17.722Z,15.00
2022-11-09T18:08:04.704Z,15.00
2022-11-09T18:10:51.837Z,15.00
2022-11-09T18:13:44.451Z,15.20
2022-11-09T18:16:31.392Z,15.00
2022-11-09T18:19:18.311Z,15.00
2022-11-09T18:22:08.714Z,15.00
2022-11-09T18:24:59.068Z,15.00
2022-11-09T18:27:47.281Z,15.00
2022-11-09T18:30:41.615Z,15.00
2022-11-09T18:33:28.549Z,15.00
2022-11-09T18:36:17.316Z,15.00
2022-11-09T18:39:04.685Z,15.00
2022-11-09T18:41:52.140Z,15.00
2022-11-09T18:44:38.770Z,15.00
2022-11-09T18:47:26.859Z,14.90
2022-11-09T18:50:13.541Z,15.00
2022-11-09T18:53:00.512Z,14.90
2022-11-09T18:55:47.122Z,14.90
2022-11-09T18:58:34.582Z,14.90
2022-11-09T19:01:24.338Z,14.90
2022-11-09T19:04:14.543Z,14.80
2022-11-09T19:07:01.751Z,14.90
2022-11-09T19:09:51.616Z,14.80
2022-11-09T19:12:41.326Z,14.80
2022-11-09T19:15:28.459Z,14.80
2022-11-09T19:18:15.408Z,14.80
2022-11-09T19:21:04.323Z,14.70
2022-11-09T19:23:53.920Z,14.80
2022-11-09T19:26:40.784Z,14.70
2022-11-09T19:29:27.420Z,14.70
2022-11-09T19:32:14.246Z,14.70
2022-11-09T19:35:01.146Z,14.70
2022-11-09T19:37:49.473Z,14.70
2022-11-09T19:40:39.760Z,14.70
2022-11-09T19:43:26.795Z,14.70
2022-11-09T19:46:13.780Z,14.70
2022-11-09T19:49:01.414Z,14.60
2022-11-09T19:51:48.212Z,14.70
2022-11-09T19:54:36.503Z,14.70
2022-11-09T19:57:23.476Z,14.70
2022-11-09T20:00:11.785Z,14.70
2022-11-09T20:02:58.959Z,14.60
2022-11-09T20:05:45.620Z,14.60
2022-11-09T20:08:34.124Z,14.60
2022-11-09T20:11:42.977Z,14.60
2022-11-09T20:14:29.947Z,14.60
2022-11-09T20:17:16.933Z,14.60
2022-11-09T20:20:03.784Z,14.60
2022-11-09T20:22:51.712Z,14.60
2022-11-09T20:25:38.488Z,14.60
2022-11-09T20:28:26.519Z,14.50
2022-11-09T20:31:15.698Z,14.60
2022-11-09T20:34:02.888Z,14.60
2022-11-09T20:36:49.561Z,14.50
2022-11-09T20:39:40.955Z,14.50
2022-11-09T20:42:28.501Z,14.50
2022-11-09T20:45:17.480Z,14.50
2022-11-09T20:48:14.655Z,14.50
2022-11-09T20:51:15.348Z,14.50
2022-11-09T20:54:06.889Z,14.50
2022-11-09T20:56:54.743Z,14.50
2022-11-09T20:59:41.631Z,14.50
2022-11-09T21:02:29.838Z,14.50
2022-11-09T21:05:17.764Z,14.50
2022-11-09T21:08:04.686Z,14.50
2022-11-09T21:10:51.186Z,14.50
2022-11-09T21:13:38.077Z,14.40
2022-11-09T21:16:25.169Z,14.40
2022-11-09T21:19:13.392Z,14.40
2022-11-09T21:21:59.972Z,14.40
2022-11-09T21:25:04.440Z,14.40
2022-11-09T21:28:08.830Z,14.40
2022-11-09T21:30:55.775Z,14.40
2022-11-09T21:33:42.680Z,14.30
2022-11-09T21:36:31.078Z,14.40
2022-11-09T21:39:17.661Z,14.40
2022-11-09T21:42:05.070Z,14.30
2022-11-09T21:44:51.756Z,14.40
2022-11-09T21:47:38.563Z,14.40
2022-11-09T21:50:25.268Z,14.40
2022-11-09T21:53:13.600Z,14.30
2022-11-09T21:56:00.620Z,14.30
2022-11-09T21:58:48.068Z,14.30
2022-11-09T22:01:35.004Z,14.30
2022-11-09T22:04:21.721Z,14.30
2022-11-09T22:07:08.249Z,14.30
2022-11-09T22:10:09.961Z,14.30
2022-11-09T22:13:15.176Z,14.30
2022-11-09T22:16:07.914Z,14.20
2022-11-09T22:19:13.037Z,14.30
2022-11-09T22:21:59.927Z,14.30
2022-11-09T22:24:47.138Z,14.20
2022-11-09T22:27:35.177Z,14.20
2022-11-09T22:30:24.254Z,14.20
2022-11-09T22:33:10.924Z,14.20
2022-11-09T22:35:58.622Z,14.20
2022-11-09T22:38:46.066Z,14.20
2022-11-09T22:41:32.816Z,14.20
2022-11-09T22:44:21.107Z,14.20
2022-11-09T22:47:07.853Z,14.20
2022-11-09T22:49:54.770Z,14.20
2022-11-09T22:52:41.503Z,14.20
2022-11-09T22:55:30.654Z,14.20
2022-11-09T22:58:17.294Z,14.20
2022-11-09T23:01:11.627Z,14.20
2022-11-09T23:03:58.500Z,14.20
2022-11-09T23:06:45.528Z,14.20
2022-11-09T23:09:32.613Z,14.20
2022-11-09T23:12:19.544Z,14.20
2022-11-09T23:15:12.424Z,14.20
2022-11-09T23:18:17.919Z,14.20
2022-11-09T23:21:07.905Z,14.20
2022-11-09T23:23:56.178Z,14.20
2022-11-09T23:26:43.025Z,14.20
2022-11-09T23:29:29.952Z,14.20
2022-11-09T23:32:16.630Z,14.20
2022-11-09T23:35:05.637Z,14.10
2022-11-09T23:37:59.257Z,14.10
2022-11-09T23:40:46.243Z,14.10
2022-11-09T23:43:33.133Z,14.10
2022-11-09T23:46:19.700Z,14.10
2022-11-09T23:49:06.558Z,14.20
2022-11-09T23:51:54.992Z,14.10
2022-11-09T23:54:41.549Z,14.10
2022-11-09T23:57:29.253Z,14.10
